Time;durP1;ratioP1;P1;durP2;ratioP2;P2;SDS_P1;SDS_P2;PMS_P1;PMS_P2;Temp;Humidity;BMP_temperature;BMP_pressure;BME280_temperature;BME280_humidity;BME280_pressure;Samples;Min_cycle;Max_cycle;Signal;HPM_P1;HPM_P2
2024/04/06 00:00:32;;;;;;;3.23;2.80;;;15.20;1.00;;;;;;5104680;27;20478;-77
2024/04/06 00:02:59;;;;;;;4.27;3.07;;;15.30;1.00;;;;;;5104430;27;20465;-78
2024/04/06 00:05:25;;;;;;;3.43;2.80;;;15.30;1.00;;;;;;5107471;27;20538;-76
2024/04/06 00:07:52;;;;;;;6.53;5.70;;;15.40;1.00;;;;;;5105336;27;21049;-76
2024/04/06 00:10:19;;;;;;;4.10;3.70;;;15.40;1.00;;;;;;5103214;28;20554;-79
2024/04/06 00:12:47;;;;;;;4.37;3.40;;;15.30;1.00;;;;;;5106327;27;20848;-77
2024/04/06 00:15:13;;;;;;;4.30;3.60;;;15.40;1.00;;;;;;5104456;28;20569;-77
2024/04/06 00:17:40;;;;;;;3.47;3.17;;;15.30;1.00;;;;;;5106674;28;20832;-77
2024/04/06 00:20:07;;;;;;;5.40;3.47;;;15.40;1.00;;;;;;5103740;27;20238;-77
2024/04/06 00:22:34;;;;;;;3.10;2.90;;;15.40;1.00;;;;;;5108056;27;20459;-78
2024/04/06 00:25:00;;;;;;;4.43;3.20;;;15.50;1.00;;;;;;5104130;27;20469;-77
2024/04/06 00:27:28;;;;;;;3.10;2.80;;;15.50;1.00;;;;;;5110815;28;20580;-76
2024/04/06 00:29:55;;;;;;;3.07;2.87;;;15.50;1.00;;;;;;5102019;27;21039;-78
2024/04/06 00:32:22;;;;;;;3.90;2.83;;;15.50;1.00;;;;;;5102842;28;20893;-77
2024/04/06 00:34:48;;;;;;;3.60;3.30;;;15.50;1.00;;;;;;5103085;27;20953;-77
2024/04/06 00:37:15;;;;;;;3.43;2.67;;;15.50;1.00;;;;;;5103270;27;20539;-78
2024/04/06 00:39:41;;;;;;;2.47;2.27;;;15.50;1.00;;;;;;5100641;27;20547;-79
2024/04/06 00:42:10;;;;;;;3.70;3.00;;;15.40;1.00;;;;;;5102948;27;20502;-77
2024/04/06 00:44:36;;;;;;;3.07;2.77;;;15.40;1.00;;;;;;5105144;27;20473;-77
2024/04/06 00:47:04;;;;;;;3.40;3.10;;;15.30;1.00;;;;;;5103350;27;20466;-77
2024/04/06 00:49:32;;;;;;;3.47;3.17;;;15.20;1.00;;;;;;5100805;28;20515;-77
2024/04/06 00:51:59;;;;;;;4.33;3.23;;;15.20;1.00;;;;;;5099040;27;20455;-77
2024/04/06 00:54:25;;;;;;;3.60;3.30;;;15.10;1.00;;;;;;5099924;27;20477;-77
2024/04/06 00:56:53;;;;;;;3.50;3.20;;;15.10;1.00;;;;;;5102318;28;20478;-78
2024/04/06 00:59:19;;;;;;;5.03;3.63;;;15.00;1.00;;;;;;5104876;28;20463;-75
2024/04/06 01:01:48;;;;;;;3.63;3.33;;;14.90;1.00;;;;;;5102836;27;21373;-77
2024/04/06 01:04:15;;;;;;;4.07;3.50;;;14.90;1.00;;;;;;5102041;28;20964;-76
2024/04/06 01:06:42;;;;;;;4.10;3.70;;;14.90;1.00;;;;;;5102494;27;20556;-78
2024/04/06 01:09:09;;;;;;;4.53;4.10;;;14.90;1.00;;;;;;5102345;27;20520;-78
2024/04/06 01:11:37;;;;;;;4.50;3.73;;;14.80;1.00;;;;;;5102179;27;20457;-77
2024/04/06 01:14:03;;;;;;;6.00;5.43;;;14.80;1.00;;;;;;5103833;27;20469;-79
2024/04/06 01:16:31;;;;;;;4.87;4.47;;;14.70;1.00;;;;;;5103542;27;21014;-78
2024/04/06 01:18:56;;;;;;;5.80;3.73;;;14.70;1.00;;;;;;5107342;27;20469;-81
2024/04/06 01:21:26;;;;;;;4.10;3.70;;;14.60;1.00;;;;;;5103079;27;20938;-80
2024/04/06 01:23:53;;;;;;;3.87;3.57;;;14.60;1.00;;;;;;5105844;27;20492;-85
2024/04/06 01:26:21;;;;;;;6.43;5.83;;;14.60;1.00;;;;;;5104185;27;21236;-81
2024/04/06 01:28:47;;;;;;;5.43;4.40;;;14.50;1.00;;;;;;5109487;27;20850;-80
2024/04/06 01:31:14;;;;;;;5.03;4.00;;;14.50;1.00;;;;;;5105830;28;21629;-81
2024/04/06 01:33:41;;;;;;;4.70;4.30;;;14.50;1.00;;;;;;5109483;27;20975;-81
2024/04/06 01:36:09;;;;;;;5.73;3.97;;;14.50;1.00;;;;;;5104731;27;20422;-81
2024/04/06 01:38:35;;;;;;;5.00;4.10;;;14.50;1.00;;;;;;5110797;27;20473;-83
2024/04/06 01:41:02;;;;;;;5.90;5.03;;;14.50;1.00;;;;;;5105071;27;20461;-79
2024/04/06 01:43:31;;;;;;;5.30;4.80;;;14.50;1.00;;;;;;5107240;27;20523;-81
2024/04/06 01:45:58;;;;;;;4.93;4.43;;;14.50;1.00;;;;;;5107717;27;20840;-80
2024/04/06 01:48:24;;;;;;;5.03;3.73;;;14.50;1.00;;;;;;5102302;27;20460;-75
2024/04/06 01:50:51;;;;;;;5.70;4.37;;;14.50;1.00;;;;;;5102298;27;20887;-77
2024/04/06 01:53:17;;;;;;;5.30;4.53;;;14.50;1.00;;;;;;5102519;28;20469;-75
2024/04/06 01:55:44;;;;;;;4.90;4.20;;;14.50;1.00;;;;;;5104378;28;20879;-76
2024/04/06 01:58:10;;;;;;;5.00;4.60;;;14.40;1.00;;;;;;5105519;27;20477;-74
2024/04/06 02:00:38;;;;;;;4.60;4.20;;;14.40;1.00;;;;;;5101625;27;21057;-74
2024/04/06 02:03:04;;;;;;;5.13;4.50;;;14.40;1.00;;;;;;5103303;27;20508;-75
2024/04/06 02:05:31;;;;;;;5.83;4.90;;;14.40;1.00;;;;;;5103649;27;20473;-77
2024/04/06 02:07:57;;;;;;;5.00;4.50;;;14.30;1.00;;;;;;5103060;27;20610;-76
2024/04/06 02:10:25;;;;;;;5.30;4.33;;;14.30;1.00;;;;;;5101535;28;20598;-77
2024/04/06 02:12:54;;;;;;;5.10;4.50;;;14.30;1.00;;;;;;5103463;28;20542;-75
2024/04/06 02:15:21;;;;;;;6.87;4.70;;;14.30;1.00;;;;;;5104037;27;22124;-78
2024/04/06 02:17:49;;;;;;;6.77;4.33;;;14.30;1.00;;;;;;5098359;28;20554;-76
2024/04/06 02:20:15;;;;;;;5.50;5.10;;;14.30;1.00;;;;;;5103251;27;21103;-76
2024/04/06 02:22:41;;;;;;;5.17;4.50;;;14.30;1.00;;;;;;5102703;28;20549;-75
2024/04/06 02:25:08;;;;;;;4.70;4.30;;;14.30;1.00;;;;;;5103376;27;20470;-75
2024/04/06 02:27:34;;;;;;;5.07;4.57;;;14.30;1.00;;;;;;5104739;28;21065;-80
2024/04/06 02:30:06;;;;;;;5.37;4.97;;;14.20;1.00;;;;;;5104696;27;20444;-80
2024/04/06 02:32:33;;;;;;;4.93;4.53;;;14.20;1.00;;;;;;5105914;28;20485;-81
2024/04/06 02:35:01;;;;;;;5.70;4.60;;;14.20;1.00;;;;;;5104754;28;20417;-81
2024/04/06 02:37:27;;;;;;;4.60;4.17;;;14.10;1.00;;;;;;5104939;27;21000;-79
2024/04/06 02:39:54;;;;;;;4.90;4.40;;;14.10;1.00;;;;;;5107132;27;20461;-85
2024/04/06 02:42:20;;;;;;;5.23;4.73;;;14.10;1.00;;;;;;5105499;28;20492;-82
2024/04/06 02:44:47;;;;;;;5.47;4.90;;;14.00;1.00;;;;;;5107397;28;20473;-81
2024/04/06 02:47:13;;;;;;;7.03;5.47;;;14.10;1.00;;;;;;5107195;28;20532;-80
2024/04/06 02:49:41;;;;;;;5.20;4.70;;;14.10;1.00;;;;;;5104150;28;20457;-84
2024/04/06 02:52:08;;;;;;;5.47;5.03;;;14.10;1.00;;;;;;5104410;27;20457;-82
2024/04/06 02:54:35;;;;;;;4.47;4.07;;;14.10;1.00;;;;;;5102931;27;20481;-81
2024/04/06 02:57:01;;;;;;;5.43;5.03;;;14.10;1.00;;;;;;5107456;28;20551;-82
2024/04/06 02:59:28;;;;;;;5.67;5.07;;;14.00;1.00;;;;;;5102912;28;20453;-82
2024/04/06 03:01:54;;;;;;;5.60;5.10;;;14.00;1.00;;;;;;5108612;28;20548;-83
2024/04/06 03:04:21;;;;;;;5.80;4.67;;;14.00;1.00;;;;;;5107412;28;20554;-81
2024/04/06 03:06:47;;;;;;;5.77;4.73;;;14.00;1.00;;;;;;5106687;28;20493;-81
2024/04/06 03:09:15;;;;;;;5.70;4.60;;;13.90;1.00;;;;;;5102636;27;20503;-81
2024/04/06 03:11:42;;;;;;;6.33;5.80;;;13.90;1.00;;;;;;5107315;27;20473;-80
2024/04/06 03:14:10;;;;;;;5.77;5.07;;;13.90;1.00;;;;;;5108485;27;20428;-81
2024/04/06 03:16:36;;;;;;;7.50;5.80;;;13.80;1.00;;;;;;5109164;27;20468;-81
2024/04/06 03:19:03;;;;;;;4.57;4.17;;;13.80;1.00;;;;;;5104725;27;20961;-81
2024/04/06 03:21:29;;;;;;;5.43;5.00;;;13.80;1.00;;;;;;5110118;28;21415;-82
2024/04/06 03:23:56;;;;;;;5.03;4.63;;;13.80;1.00;;;;;;5089391;28;21023;-81
2024/04/06 03:26:23;;;;;;;9.43;5.27;;;13.70;1.00;;;;;;5106691;27;20526;-82
2024/04/06 03:28:51;;;;;;;5.60;5.10;;;13.70;1.00;;;;;;5103955;27;20946;-82
2024/04/06 03:31:17;;;;;;;5.80;4.70;;;13.70;1.00;;;;;;5105834;27;21030;-81
2024/04/06 03:33:47;;;;;;;7.90;5.73;;;13.80;1.00;;;;;;5083971;28;20499;-82
2024/04/06 03:36:13;;;;;;;5.50;5.00;;;13.80;1.00;;;;;;5101002;28;20524;-79
2024/04/06 03:38:40;;;;;;;5.03;4.63;;;13.80;1.00;;;;;;5103689;28;20482;-80
2024/04/06 03:41:07;;;;;;;5.73;5.00;;;13.80;1.00;;;;;;5103225;28;20485;-81
2024/04/06 03:43:35;;;;;;;8.53;5.50;;;13.70;1.00;;;;;;5107621;27;20473;-81
2024/04/06 03:46:01;;;;;;;5.90;5.40;;;13.70;1.00;;;;;;5105766;28;20473;-82
2024/04/06 03:48:30;;;;;;;7.17;5.40;;;13.70;1.00;;;;;;5100591;28;20483;-82
2024/04/06 03:50:56;;;;;;;5.60;5.10;;;13.60;1.00;;;;;;5106862;28;20464;-81
2024/04/06 03:53:31;;;;;;;5.17;4.70;;;13.60;1.00;;;;;;5106755;28;20456;-81
2024/04/06 03:55:57;;;;;;;5.17;4.77;;;13.50;1.00;;;;;;5101835;28;20892;-81
2024/04/06 03:58:24;;;;;;;4.83;4.43;;;13.50;1.00;;;;;;5104098;28;20440;-81
2024/04/06 04:00:51;;;;;;;5.17;4.67;;;13.60;1.00;;;;;;5103785;27;20425;-79
2024/04/06 04:03:18;;;;;;;6.17;5.10;;;13.60;1.00;;;;;;5100035;28;20450;-78
2024/04/06 04:05:44;;;;;;;5.20;4.80;;;13.60;1.00;;;;;;5095677;28;20485;-82
2024/04/06 04:08:11;;;;;;;5.83;5.33;;;13.50;1.00;;;;;;5104389;28;20968;-81
2024/04/06 04:10:37;;;;;;;5.73;5.27;;;13.50;1.00;;;;;;5105991;27;20479;-82
2024/04/06 04:13:09;;;;;;;7.07;5.60;;;13.40;1.00;;;;;;5106986;27;20501;-80
2024/04/06 04:15:35;;;;;;;5.63;5.13;;;13.30;1.00;;;;;;5107990;27;20461;-82
2024/04/06 04:18:04;;;;;;;5.97;4.20;;;13.30;1.00;;;;;;5105936;28;20550;-81
2024/04/06 04:20:30;;;;;;;7.77;6.10;;;13.30;1.00;;;;;;5102588;27;21289;-80
2024/04/06 04:22:57;;;;;;;4.70;4.20;;;13.30;1.00;;;;;;5108177;27;20520;-82
2024/04/06 04:25:22;;;;;;;5.20;4.80;;;13.30;1.00;;;;;;5107956;27;20596;-81
2024/04/06 04:27:50;;;;;;;5.53;4.80;;;13.30;1.00;;;;;;5113639;27;21982;-83
2024/04/06 04:30:15;;;;;;;5.60;5.20;;;13.30;1.00;;;;;;5106740;28;20958;-81
2024/04/06 04:32:42;;;;;;;7.23;6.63;;;13.30;1.00;;;;;;5107840;27;20511;-82
2024/04/06 04:35:10;;;;;;;6.30;5.67;;;13.20;1.00;;;;;;5108271;27;21269;-81
2024/04/06 04:37:36;;;;;;;5.37;4.97;;;13.20;1.00;;;;;;5093155;28;20464;-83
2024/04/06 04:40:03;;;;;;;7.90;5.30;;;13.20;1.00;;;;;;5108727;28;20513;-84
2024/04/06 04:42:30;;;;;;;5.80;5.23;;;13.20;1.00;;;;;;5109031;27;20452;-82
2024/04/06 04:45:01;;;;;;;6.63;5.93;;;13.20;1.00;;;;;;5108508;27;20468;-82
2024/04/06 04:47:28;;;;;;;5.83;5.33;;;13.10;1.00;;;;;;5106884;28;20563;-81
2024/04/06 04:49:55;;;;;;;5.23;4.73;;;13.10;1.00;;;;;;5107887;27;20497;-81
2024/04/06 04:52:23;;;;;;;5.93;5.33;;;13.10;1.00;;;;;;5091487;28;20459;-79
2024/04/06 04:54:49;;;;;;;5.43;4.93;;;13.10;1.00;;;;;;5108877;28;20476;-82
2024/04/06 04:57:16;;;;;;;6.47;5.83;;;13.10;1.00;;;;;;5106291;28;20420;-82
2024/04/06 04:59:43;;;;;;;6.73;5.73;;;13.00;1.00;;;;;;5108248;27;20585;-80
2024/04/06 05:02:09;;;;;;;5.23;4.73;;;13.10;1.00;;;;;;5106727;27;21296;-79
2024/04/06 05:04:35;;;;;;;5.27;4.67;;;13.10;1.00;;;;;;5110259;28;21370;-82
2024/04/06 05:07:03;;;;;;;5.33;4.83;;;13.20;1.00;;;;;;5109043;28;20528;-82
2024/04/06 05:09:30;;;;;;;4.80;4.40;;;13.20;1.00;;;;;;5110000;27;20473;-82
2024/04/06 05:11:57;;;;;;;8.63;5.50;;;13.20;1.00;;;;;;5107081;28;20442;-82
2024/04/06 05:14:23;;;;;;;5.87;5.30;;;13.30;1.00;;;;;;5107198;28;20991;-81
2024/04/06 05:16:50;;;;;;;5.30;4.83;;;13.30;1.00;;;;;;5109495;28;20481;-85
2024/04/06 05:19:16;;;;;;;5.00;4.60;;;13.40;1.00;;;;;;5106993;28;20926;-79
2024/04/06 05:21:43;;;;;;;4.17;3.87;;;13.50;1.00;;;;;;5108156;27;20523;-81
2024/04/06 05:24:09;;;;;;;6.10;4.80;;;13.60;1.00;;;;;;5109597;27;20457;-82
2024/04/06 05:26:40;;;;;;;5.37;4.87;;;13.70;1.00;;;;;;5111339;27;20561;-82
2024/04/06 05:29:06;;;;;;;5.37;4.87;;;13.80;1.00;;;;;;5110568;28;21282;-79
2024/04/06 05:31:35;;;;;;;5.03;4.63;;;13.80;1.00;;;;;;5106503;28;20487;-81
2024/04/06 05:34:01;;;;;;;7.30;4.20;;;13.80;1.00;;;;;;5098433;27;20500;-80
2024/04/06 05:36:28;;;;;;;4.83;4.33;;;13.90;1.00;;;;;;5109475;27;20474;-81
2024/04/06 05:38:54;;;;;;;4.00;3.60;;;14.10;1.00;;;;;;5109063;27;20437;-77
2024/04/06 05:41:22;;;;;;;6.97;4.00;;;14.10;1.00;;;;;;5106758;28;20560;-80
2024/04/06 05:43:51;;;;;;;4.53;4.13;;;14.20;1.00;;;;;;5109854;27;20473;-78
2024/04/06 05:46:18;;;;;;;3.77;3.37;;;14.30;1.00;;;;;;5107280;27;20431;-82
2024/04/06 05:48:45;;;;;;;7.20;4.47;;;14.50;1.00;;;;;;5106360;27;21010;-81
2024/04/06 05:51:12;;;;;;;6.20;3.80;;;14.60;1.00;;;;;;5105758;27;20417;-81
2024/04/06 05:53:40;;;;;;;3.93;3.57;;;14.60;1.00;;;;;;5107450;28;20477;-81
2024/04/06 05:56:08;;;;;;;4.20;3.90;;;14.60;1.00;;;;;;5106379;27;21039;-80
2024/04/06 05:58:34;;;;;;;8.10;3.90;;;14.70;1.00;;;;;;5102820;28;21288;-77
2024/04/06 06:01:02;;;;;;;3.37;3.07;;;14.80;1.00;;;;;;5104967;27;20556;-78
2024/04/06 06:03:28;;;;;;;4.30;3.90;;;15.00;1.00;;;;;;5104230;28;20488;-77
2024/04/06 06:05:55;;;;;;;5.77;3.57;;;15.10;1.00;;;;;;5082920;28;20469;-77
2024/04/06 06:08:21;;;;;;;4.80;3.87;;;15.10;1.00;;;;;;5105100;28;20489;-77
2024/04/06 06:10:48;;;;;;;4.70;3.30;;;15.10;1.00;;;;;;5105973;27;20453;-78
2024/04/06 06:13:14;;;;;;;4.20;3.57;;;15.20;1.00;;;;;;5101727;28;20448;-78
2024/04/06 06:15:41;;;;;;;5.13;3.00;;;15.30;1.00;;;;;;5103193;28;20430;-78
2024/04/06 06:18:08;;;;;;;4.83;3.40;;;15.30;1.00;;;;;;5106163;27;21236;-78
2024/04/06 06:20:38;;;;;;;3.50;3.10;;;15.40;1.00;;;;;;5105340;28;20539;-78
2024/04/06 06:23:05;;;;;;;5.10;3.90;;;15.60;1.00;;;;;;5105367;28;20485;-78
2024/04/06 06:25:33;;;;;;;3.43;3.10;;;15.60;1.00;;;;;;5104982;28;20531;-77
2024/04/06 06:27:58;;;;;;;3.63;3.10;;;15.60;1.00;;;;;;5102913;28;20465;-77
2024/04/06 06:30:26;;;;;;;4.90;3.47;;;15.70;1.00;;;;;;5104888;27;20462;-78
2024/04/06 06:32:52;;;;;;;3.37;2.90;;;15.80;1.00;;;;;;5101786;27;20632;-78
2024/04/06 06:35:20;;;;;;;3.60;3.30;;;15.80;1.00;;;;;;5104240;27;20807;-78
2024/04/06 06:37:47;;;;;;;4.03;3.30;;;15.80;1.00;;;;;;5107099;27;20480;-78
2024/04/06 06:40:14;;;;;;;3.73;3.40;;;15.90;1.00;;;;;;5106383;27;20453;-78
2024/04/06 06:42:40;;;;;;;5.73;4.63;;;16.10;1.00;;;;;;5102945;27;20580;-78
2024/04/06 06:45:08;;;;;;;3.30;3.00;;;16.10;1.00;;;;;;5099434;28;20879;-78
2024/04/06 06:47:34;;;;;;;5.93;3.40;;;16.10;1.00;;;;;;5103215;27;20953;-77
2024/04/06 06:50:02;;;;;;;4.60;3.37;;;16.20;1.00;;;;;;5087323;28;20469;-78
2024/04/06 06:52:30;;;;;;;3.77;3.23;;;16.30;1.00;;;;;;5103703;28;20505;-76
2024/04/06 06:54:57;;;;;;;3.57;3.13;;;16.50;1.00;;;;;;5096116;28;20443;-77
2024/04/06 06:57:23;;;;;;;4.20;2.90;;;16.60;1.00;;;;;;5103346;27;20464;-79
2024/04/06 06:59:50;;;;;;;3.97;2.80;;;16.50;1.00;;;;;;5103154;27;20476;-78
2024/04/06 07:02:16;;;;;;;3.60;3.10;;;16.50;1.00;;;;;;5100674;28;20474;-77
2024/04/06 07:04:44;;;;;;;3.10;2.90;;;16.50;1.00;;;;;;5103363;27;20450;-79
2024/04/06 07:07:10;;;;;;;8.80;4.00;;;16.70;1.00;;;;;;5102780;27;20450;-78
2024/04/06 07:09:39;;;;;;;5.90;3.77;;;16.90;1.00;;;;;;5109868;27;20454;-81
2024/04/06 07:12:07;;;;;;;5.33;3.40;;;17.00;1.00;;;;;;5088927;28;20498;-77
2024/04/06 07:14:34;;;;;;;7.50;3.20;;;17.10;1.00;;;;;;5087488;28;20432;-81
2024/04/06 07:17:00;;;;;;;3.53;3.23;;;17.20;1.00;;;;;;5105314;27;20471;-80
2024/04/06 07:19:29;;;;;;;4.33;2.73;;;17.30;1.00;;;;;;5108973;28;20451;-81
2024/04/06 07:21:54;;;;;;;3.70;3.17;;;17.30;1.00;;;;;;5106588;27;20423;-80
2024/04/06 07:24:22;;;;;;;6.00;3.00;;;17.40;1.00;;;;;;5107035;28;20454;-81
2024/04/06 07:26:49;;;;;;;5.37;3.53;;;17.40;1.00;;;;;;5109814;27;20458;-81
2024/04/06 07:29:16;;;;;;;4.40;3.13;;;17.50;1.00;;;;;;5090544;28;20517;-81
2024/04/06 07:31:42;;;;;;;3.20;2.53;;;17.50;1.00;;;;;;5105538;28;20502;-81
2024/04/06 07:34:09;;;;;;;4.30;2.90;;;17.60;1.00;;;;;;5109449;28;20479;-82
2024/04/06 07:36:35;;;;;;;3.57;2.80;;;17.60;1.00;;;;;;5109511;28;20615;-82
2024/04/06 07:39:02;;;;;;;4.70;3.00;;;17.70;1.00;;;;;;5106220;27;20518;-79
2024/04/06 07:41:28;;;;;;;7.97;3.87;;;17.80;1.00;;;;;;5106095;28;20478;-79
2024/04/06 07:43:57;;;;;;;5.33;3.90;;;18.00;1.00;;;;;;5109363;28;20534;-82
2024/04/06 07:46:22;;;;;;;6.20;3.20;;;18.20;1.00;;;;;;5104678;27;20508;-79
2024/04/06 07:48:49;;;;;;;4.40;2.97;;;18.40;1.00;;;;;;5091940;28;20468;-83
2024/04/06 07:51:15;;;;;;;6.83;3.60;;;18.70;1.00;;;;;;5112262;28;20460;-82
2024/04/06 07:53:42;;;;;;;5.13;3.20;;;18.90;1.00;;;;;;5110941;27;20445;-81
2024/04/06 07:56:08;;;;;;;3.60;2.93;;;18.90;1.00;;;;;;5108104;27;20460;-83
2024/04/06 07:58:35;;;;;;;3.47;2.90;;;18.80;1.00;;;;;;5115807;27;20413;-81
2024/04/06 08:01:05;;;;;;;4.07;2.80;;;18.80;1.00;;;;;;5103360;27;20494;-81
2024/04/06 08:03:32;;;;;;;2.87;2.43;;;18.80;1.00;;;;;;5097045;28;20448;-82
2024/04/06 08:05:59;;;;;;;3.83;2.90;;;18.90;1.00;;;;;;5110224;27;20418;-83
2024/04/06 08:08:27;;;;;;;4.50;3.00;;;19.10;1.00;;;;;;5115097;28;20480;-79
2024/04/06 08:10:53;;;;;;;3.30;3.00;;;19.20;1.00;;;;;;5111504;27;20448;-80
2024/04/06 08:13:20;;;;;;;4.73;2.80;;;19.30;1.00;;;;;;5113360;28;21251;-80
2024/04/06 08:15:46;;;;;;;2.87;2.63;;;19.30;1.00;;;;;;5117031;27;20458;-81
2024/04/06 08:18:15;;;;;;;5.17;2.80;;;19.30;1.00;;;;;;5101467;28;21178;-80
2024/04/06 08:20:41;;;;;;;4.67;2.77;;;19.50;1.00;;;;;;5107010;27;20469;-81
2024/04/06 08:23:08;;;;;;;7.20;2.47;;;19.60;1.00;;;;;;5111040;28;20488;-81
2024/04/06 08:25:35;;;;;;;2.40;2.00;;;19.70;1.00;;;;;;5110470;28;20534;-80
2024/04/06 08:28:02;;;;;;;3.70;2.47;;;19.80;1.00;;;;;;5111112;27;20458;-79
2024/04/06 08:30:28;;;;;;;6.47;2.97;;;19.90;1.00;;;;;;5107992;27;20929;-81
2024/04/06 08:32:58;;;;;;;3.23;2.10;;;20.20;1.00;;;;;;5108752;27;20451;-79
2024/04/06 08:35:26;;;;;;;5.47;4.33;;;20.70;1.00;;;;;;5110485;27;20466;-79
2024/04/06 08:37:53;;;;;;;3.37;2.63;;;21.00;1.00;;;;;;5109101;27;20478;-79
2024/04/06 08:40:20;;;;;;;3.27;2.40;;;21.10;1.00;;;;;;5105970;27;20463;-78
2024/04/06 08:42:47;;;;;;;3.40;1.90;;;20.90;1.00;;;;;;5104646;27;20455;-77
2024/04/06 08:45:17;;;;;;;5.37;2.47;;;20.90;1.00;;;;;;5103990;27;20425;-80
2024/04/06 08:47:44;;;;;;;2.40;2.20;;;20.80;1.00;;;;;;5106676;28;20476;-77
2024/04/06 08:50:11;;;;;;;3.20;2.90;;;20.90;1.00;;;;;;5105007;27;20453;-78
2024/04/06 08:52:43;;;;;;;2.43;1.90;;;21.00;1.00;;;;;;5111065;27;20892;-78
2024/04/06 08:55:09;;;;;;;4.70;2.73;;;21.20;1.00;;;;;;5102650;27;20928;-78
2024/04/06 08:57:37;;;;;;;2.73;2.40;;;21.40;1.00;;;;;;5105125;28;20467;-80
2024/04/06 09:00:07;;;;;;;5.10;2.33;;;21.50;1.00;;;;;;5105205;28;20474;-78
2024/04/06 09:02:36;;;;;;;5.13;2.53;;;21.60;1.00;;;;;;5107693;27;20910;-76
2024/04/06 09:05:03;;;;;;;3.50;3.00;;;21.70;1.00;;;;;;5095380;27;20460;-76
2024/04/06 09:07:30;;;;;;;2.60;2.40;;;21.70;1.00;;;;;;5098812;27;20485;-78
2024/04/06 09:09:58;;;;;;;4.13;3.00;;;21.80;1.00;;;;;;5102406;27;20552;-76
2024/04/06 09:12:25;;;;;;;3.43;2.37;;;22.00;1.00;;;;;;5104738;27;20560;-75
2024/04/06 09:14:51;;;;;;;2.67;2.30;;;22.00;1.00;;;;;;5104390;28;20449;-77
2024/04/06 09:17:21;;;;;;;3.57;2.40;;;22.00;1.00;;;;;;5105230;28;20465;-78
2024/04/06 09:19:48;;;;;;;3.13;2.83;;;21.90;1.00;;;;;;5107796;28;20476;-77
2024/04/06 09:22:14;;;;;;;2.60;2.40;;;21.60;1.00;;;;;;5107787;27;20460;-77
2024/04/06 09:24:41;;;;;;;2.53;2.20;;;21.40;1.00;;;;;;5103408;27;20507;-77
2024/04/06 09:27:12;;;;;;;3.03;1.87;;;21.20;1.00;;;;;;5102408;27;20534;-77
2024/04/06 09:29:39;;;;;;;6.00;3.40;;;21.40;1.00;;;;;;5104380;28;20494;-77
2024/04/06 09:32:10;;;;;;;2.20;2.00;;;22.20;1.00;;;;;;5104537;27;20556;-78
2024/04/06 09:34:44;;;;;;;3.93;2.20;;;23.00;1.00;;;;;;5103782;27;20504;-78
2024/04/06 09:37:12;;;;;;;2.57;2.37;;;24.60;1.00;;;;;;5104690;27;20442;-79
2024/04/06 09:39:39;;;;;;;2.03;1.80;;;25.90;1.00;;;;;;5078720;28;20465;-78
2024/04/06 09:42:07;;;;;;;3.73;2.30;;;27.10;1.00;;;;;;5104790;27;20905;-77
2024/04/06 09:44:36;;;;;;;3.60;2.23;;;27.90;1.00;;;;;;5104456;28;20470;-78
2024/04/06 09:47:05;;;;;;;5.10;2.20;;;28.50;1.00;;;;;;5103232;28;20471;-78
2024/04/06 09:49:34;;;;;;;2.70;2.03;;;29.00;1.00;;;;;;5105041;28;20503;-76
2024/04/06 09:52:01;;;;;;;4.00;2.37;;;29.80;1.00;;;;;;5099459;28;20434;-77
2024/04/06 09:54:31;;;;;;;5.80;2.30;;;30.40;1.00;;;;;;5106445;28;20481;-79
2024/04/06 09:57:00;;;;;;;2.30;2.07;;;30.00;1.00;;;;;;5100396;27;20920;-77
2024/04/06 09:59:28;;;;;;;2.40;1.90;;;29.80;1.00;;;;;;5107248;27;20508;-77
2024/04/06 10:01:57;;;;;;;1.67;1.57;;;29.90;1.00;;;;;;5105922;27;20468;-75
2024/04/06 10:04:24;;;;;;;2.47;1.73;;;30.50;1.00;;;;;;5103502;28;20461;-75
2024/04/06 10:06:52;;;;;;;1.80;1.43;;;31.10;1.00;;;;;;5108871;27;20461;-76
2024/04/06 10:09:18;;;;;;;2.07;1.70;;;31.10;1.00;;;;;;5105607;27;20461;-78
2024/04/06 10:11:46;;;;;;;4.77;2.43;;;31.40;1.00;;;;;;5104370;28;20525;-77
2024/04/06 10:14:12;;;;;;;2.63;1.50;;;31.90;1.00;;;;;;5104930;28;20454;-79
2024/04/06 10:16:43;;;;;;;1.73;1.30;;;32.10;1.00;;;;;;5102522;27;20564;-76
2024/04/06 10:19:12;;;;;;;3.53;1.67;;;32.30;1.00;;;;;;5081785;28;20941;-76
2024/04/06 10:21:45;;;;;;;1.60;1.23;;;32.70;1.00;;;;;;5096214;28;20478;-76
2024/04/06 10:24:13;;;;;;;1.70;1.60;;;33.10;1.00;;;;;;5106194;27;20510;-77
2024/04/06 10:26:52;;;;;;;1.60;1.50;;;33.60;1.00;;;;;;5103516;28;20539;-77
2024/04/06 10:29:18;;;;;;;2.70;1.50;;;33.60;1.00;;;;;;5102255;28;20555;-79
2024/04/06 10:31:46;;;;;;;2.77;1.47;;;33.80;1.00;;;;;;5104409;27;20438;-77
2024/04/06 10:34:14;;;;;;;2.07;1.60;;;33.90;1.00;;;;;;5106355;27;20453;-77
2024/04/06 10:36:45;;;;;;;2.13;1.50;;;33.80;1.00;;;;;;5105549;27;20462;-77
2024/04/06 10:39:12;;;;;;;2.50;1.67;;;34.30;1.00;;;;;;5100458;27;20557;-78
2024/04/06 10:41:43;;;;;;;2.80;1.47;;;35.00;1.00;;;;;;5102852;27;20445;-76
2024/04/06 10:44:11;;;;;;;1.90;1.67;;;35.40;1.00;;;;;;5104450;27;23314;-77
2024/04/06 10:46:39;;;;;;;9.57;7.97;;;35.50;1.00;;;;;;5106194;27;20459;-76
2024/04/06 10:49:09;;;;;;;1.37;1.27;;;35.50;1.00;;;;;;5104394;27;20485;-76
2024/04/06 10:51:38;;;;;;;2.00;1.27;;;35.40;1.00;;;;;;5103122;27;20462;-75
2024/04/06 10:54:05;;;;;;;1.77;1.10;;;35.30;1.00;;;;;;5101163;27;20624;-77
2024/04/06 10:56:33;;;;;;;2.20;1.47;;;36.20;1.00;;;;;;5091709;28;21156;-77
2024/04/06 10:59:01;;;;;;;1.30;1.20;;;35.30;1.00;;;;;;5097838;28;20927;-81
2024/04/06 11:01:28;;;;;;;1.90;1.33;;;35.00;1.00;;;;;;5103648;28;20508;-79
2024/04/06 11:03:54;;;;;;;2.27;1.33;;;35.60;1.00;;;;;;5106451;28;20552;-79
2024/04/06 11:06:21;;;;;;;1.50;1.30;;;36.20;1.00;;;;;;5105874;27;20461;-80
2024/04/06 11:08:49;;;;;;;1.47;1.20;;;37.10;1.00;;;;;;5106465;27;20561;-81
2024/04/06 11:11:18;;;;;;;2.57;1.63;;;37.40;1.00;;;;;;5107875;27;20452;-82
2024/04/06 11:13:46;;;;;;;4.60;2.23;;;37.00;1.00;;;;;;5108923;27;20995;-82
2024/04/06 11:16:21;;;;;;;1.67;1.23;;;37.10;1.00;;;;;;5106388;27;20495;-81
2024/04/06 11:18:47;;;;;;;1.60;1.27;;;36.90;1.00;;;;;;5107222;28;20461;-82
2024/04/06 11:21:15;;;;;;;1.50;1.40;;;35.00;1.00;;;;;;5103999;27;20449;-81
2024/04/06 11:23:42;;;;;;;6.50;1.70;;;34.60;1.00;;;;;;5112384;27;21187;-82
2024/04/06 11:26:11;;;;;;;1.30;1.17;;;34.50;1.00;;;;;;5106136;27;20471;-80
2024/04/06 11:28:38;;;;;;;1.47;1.10;;;34.60;1.00;;;;;;5110106;27;20430;-80
2024/04/06 11:31:06;;;;;;;2.43;1.40;;;33.50;1.00;;;;;;5105984;27;22144;-81
2024/04/06 11:33:33;;;;;;;2.30;1.40;;;34.00;1.00;;;;;;5100502;27;20542;-82
2024/04/06 11:36:00;;;;;;;1.77;1.10;;;35.00;1.00;;;;;;5089364;27;20426;-83
2024/04/06 11:38:28;;;;;;;2.03;1.20;;;36.50;1.00;;;;;;5091148;28;20469;-82
2024/04/06 11:40:57;;;;;;;2.40;1.30;;;37.80;1.00;;;;;;5110660;27;20453;-82
2024/04/06 11:43:24;;;;;;;2.10;1.03;;;38.20;1.00;;;;;;5107848;28;21229;-82
2024/04/06 11:45:52;;;;;;;2.90;1.53;;;38.30;1.00;;;;;;5090717;27;20461;-79
2024/04/06 11:48:18;;;;;;;2.80;1.40;;;37.00;1.00;;;;;;5106072;27;20598;-81
2024/04/06 11:50:45;;;;;;;1.73;1.00;;;35.90;1.00;;;;;;5091954;27;20429;-84
2024/04/06 11:53:14;;;;;;;2.83;1.40;;;35.40;1.00;;;;;;5105692;27;20552;-80
2024/04/06 11:55:41;;;;;;;2.00;1.60;;;35.50;1.00;;;;;;5082724;28;20471;-83
2024/04/06 11:58:07;;;;;;;1.83;1.50;;;36.00;1.00;;;;;;5072719;28;20919;-82
2024/04/06 12:00:38;;;;;;;1.13;1.00;;;36.50;1.00;;;;;;5069108;28;20471;-81
2024/04/06 12:03:04;;;;;;;2.90;1.20;;;36.90;1.00;;;;;;5069586;28;20498;-81
2024/04/06 12:05:31;;;;;;;1.80;1.30;;;36.50;1.00;;;;;;5067139;28;20474;-83
2024/04/06 12:07:57;;;;;;;1.77;1.40;;;36.90;1.00;;;;;;5070556;28;20456;-83
2024/04/06 12:10:24;;;;;;;3.10;1.60;;;37.80;1.00;;;;;;5069407;28;20458;-84
2024/04/06 12:12:50;;;;;;;1.60;1.10;;;38.50;1.00;;;;;;5072675;28;20470;-79
2024/04/06 12:15:19;;;;;;;3.43;1.33;;;38.80;1.00;;;;;;5064824;28;21054;-81
2024/04/06 12:17:46;;;;;;;2.53;1.27;;;38.30;1.00;;;;;;5069879;28;20447;-83
2024/04/06 12:20:13;;;;;;;3.37;1.43;;;38.10;1.00;;;;;;5069515;28;20463;-81
2024/04/06 12:22:40;;;;;;;1.23;1.10;;;38.30;1.00;;;;;;5069804;28;20456;-82
2024/04/06 12:25:08;;;;;;;2.20;1.10;;;38.30;1.00;;;;;;5071330;28;20463;-81
2024/04/06 12:27:34;;;;;;;1.47;1.20;;;38.20;1.00;;;;;;5073094;28;20463;-82
2024/04/06 12:30:03;;;;;;;1.40;1.20;;;38.40;1.00;;;;;;5071736;28;20459;-82
2024/04/06 12:32:29;;;;;;;1.17;1.07;;;38.20;1.00;;;;;;5058663;28;20460;-81
2024/04/06 12:34:57;;;;;;;1.93;1.37;;;38.20;1.00;;;;;;5069016;28;20853;-82
2024/04/06 12:37:23;;;;;;;2.90;1.00;;;38.20;1.00;;;;;;5068090;28;20471;-82
2024/04/06 12:39:53;;;;;;;2.13;1.23;;;38.20;1.00;;;;;;5071065;28;20483;-83
2024/04/06 12:42:19;;;;;;;4.50;2.00;;;37.70;1.00;;;;;;5066658;28;20474;-82
2024/04/06 12:44:46;;;;;;;3.23;1.57;;;37.20;1.00;;;;;;5068372;28;20463;-82
2024/04/06 12:47:12;;;;;;;2.13;1.27;;;37.70;1.00;;;;;;5064219;28;20468;-83
2024/04/06 12:49:40;;;;;;;2.03;1.40;;;38.30;1.00;;;;;;5067661;28;20423;-82
2024/04/06 12:52:11;;;;;;;1.67;1.43;;;38.40;1.00;;;;;;5068275;28;20472;-83
2024/04/06 12:54:37;;;;;;;1.63;1.27;;;37.70;1.00;;;;;;5066057;28;20464;-82
2024/04/06 12:59:49;;;;;;;3.93;3.63;;;36.40;1.00;;;;;;5107547;28;20495;-80